createdAt,value
2023-04-25T05:01:11.365Z,25.00
2023-04-25T05:02:11.474Z,25.00
2023-04-25T05:03:11.567Z,25.00
2023-04-25T05:04:11.657Z,25.00
2023-04-25T05:05:11.477Z,25.00
2023-04-25T05:06:11.523Z,25.00
2023-04-25T05:07:11.566Z,0.00
2023-04-25T05:08:11.572Z,0.00
2023-04-25T05:09:11.590Z,0.00
2023-04-25T05:10:11.683Z,0.00
2023-04-25T05:11:11.706Z,0.00
2023-04-25T05:12:11.744Z,0.00
2023-04-25T05:13:11.750Z,0.00
2023-04-25T05:14:11.795Z,0.00
2023-04-25T05:15:11.808Z,0.00
2023-04-25T05:16:11.879Z,0.00
2023-04-25T05:17:11.860Z,0.00
2023-04-25T05:18:11.931Z,0.00
2023-04-25T05:19:11.908Z,0.00
2023-04-25T05:20:11.940Z,0.00
2023-04-25T05:21:11.916Z,0.00
2023-04-25T05:22:11.909Z,0.00
2023-04-25T05:23:11.973Z,0.00
2023-04-25T05:24:12.012Z,0.00
2023-04-25T05:25:11.984Z,0.00
2023-04-25T05:26:11.986Z,0.00
2023-04-25T05:27:11.984Z,0.00
2023-04-25T05:28:12.030Z,0.00
2023-04-25T05:29:12.066Z,2.73
2023-04-25T05:30:12.063Z,24.24
2023-04-25T05:31:12.068Z,29.33
2023-04-25T05:32:12.160Z,30.86
2023-04-25T05:33:12.175Z,28.66
2023-04-25T05:34:12.131Z,25.21
2023-04-25T05:35:12.185Z,18.40
2023-04-25T05:36:12.211Z,35.73
2023-04-25T05:37:12.224Z,23.21
2023-04-25T05:38:12.248Z,17.44
2023-04-25T05:39:12.338Z,29.11
2023-04-25T05:40:12.337Z,35.66
2023-04-25T05:41:12.432Z,30.20
2023-04-25T05:42:12.412Z,27.05
2023-04-25T05:43:12.431Z,26.32
2023-04-25T05:44:12.449Z,26.96
2023-04-25T05:45:12.511Z,38.29
2023-04-25T05:46:12.630Z,29.33
2023-04-25T05:47:12.615Z,25.43
2023-04-25T05:48:12.657Z,42.71
2023-04-25T05:49:12.642Z,49.15
2023-04-25T05:50:12.654Z,53.18
2023-04-25T05:51:12.636Z,55.40
2023-04-25T05:52:12.678Z,58.94
2023-04-25T05:53:12.716Z,60.32
2023-04-25T05:54:12.675Z,51.35
2023-04-25T05:55:12.788Z,46.33
2023-04-25T05:56:12.755Z,43.24
2023-04-25T05:57:12.836Z,26.10
2023-04-25T05:58:12.913Z,25.00
2023-04-25T05:59:12.931Z,25.00
2023-04-25T06:00:12.940Z,31.84
2023-04-25T06:01:12.991Z,37.63
2023-04-25T06:02:13.111Z,62.26
2023-04-25T06:03:13.266Z,74.74
2023-04-25T06:04:13.438Z,59.20
2023-04-25T06:05:14.612Z,62.72
2023-04-25T06:06:13.126Z,66.93
2023-04-25T06:07:13.184Z,70.43
2023-04-25T06:08:13.221Z,81.81
2023-04-25T06:09:14.460Z,88.07
2023-04-25T06:10:13.305Z,83.95
2023-04-25T06:11:13.354Z,92.65
2023-04-25T06:12:13.372Z,97.25
2023-04-25T06:13:13.432Z,102.77
2023-04-25T06:14:13.389Z,95.00
2023-04-25T06:15:27.187Z,102.54
2023-04-25T06:16:14.436Z,103.16
2023-04-25T06:17:13.422Z,104.04
2023-04-25T06:18:13.446Z,110.25
2023-04-25T06:19:13.399Z,113.67
2023-04-25T06:20:13.442Z,124.90
2023-04-25T06:21:13.364Z,133.03
2023-04-25T06:22:13.385Z,134.64
2023-04-25T06:23:13.391Z,124.12
2023-04-25T06:24:13.363Z,132.27
2023-04-25T06:25:13.375Z,136.27
2023-04-25T06:26:13.415Z,149.14
2023-04-25T06:27:14.733Z,158.15
2023-04-25T06:28:13.448Z,153.09
2023-04-25T06:29:13.525Z,143.73
2023-04-25T06:30:13.428Z,149.82
2023-04-25T06:31:13.450Z,149.26
2023-04-25T06:32:13.426Z,151.13
2023-04-25T06:33:13.469Z,136.25
2023-04-25T06:34:13.443Z,146.32
2023-04-25T06:35:13.394Z,147.27
2023-04-25T06:36:13.392Z,154.31
2023-04-25T06:37:13.411Z,142.23
2023-04-25T06:38:13.411Z,143.67
2023-04-25T06:39:13.385Z,146.39
2023-04-25T06:40:13.520Z,131.31
2023-04-25T06:41:13.376Z,149.04
2023-04-25T06:42:13.376Z,136.53
2023-04-25T06:43:13.354Z,138.69
2023-04-25T06:44:13.327Z,124.54
2023-04-25T06:45:13.352Z,129.38
2023-04-25T06:46:13.396Z,147.22
2023-04-25T06:47:13.326Z,156.50
2023-04-25T06:48:13.332Z,134.71
2023-04-25T06:49:13.361Z,149.65
2023-04-25T06:50:13.281Z,144.50
2023-04-25T06:51:13.308Z,143.72
2023-04-25T06:52:13.281Z,121.96
2023-04-25T06:53:13.284Z,137.51
2023-04-25T06:54:13.263Z,139.49
2023-04-25T06:55:13.274Z,149.31
2023-04-25T06:56:13.264Z,149.14
2023-04-25T06:57:13.271Z,150.08
2023-04-25T06:58:13.256Z,162.30
2023-04-25T06:59:13.245Z,152.37
2023-04-25T07:00:13.241Z,150.07
2023-04-25T07:01:13.322Z,135.72
2023-04-25T07:02:13.282Z,140.76
2023-04-25T07:03:13.395Z,147.63
2023-04-25T07:04:13.446Z,155.30
2023-04-25T07:05:13.245Z,175.46
2023-04-25T07:06:13.188Z,166.09
2023-04-25T07:07:13.173Z,173.66
2023-04-25T07:08:13.231Z,171.11
2023-04-25T07:09:13.180Z,162.98
2023-04-25T07:10:13.200Z,162.76
2023-04-25T07:11:13.165Z,169.54
2023-04-25T07:12:13.151Z,172.66
2023-04-25T07:13:13.155Z,172.99
2023-04-25T07:14:13.171Z,173.61
2023-04-25T07:15:13.178Z,177.40
2023-04-25T07:16:13.171Z,163.51
2023-04-25T07:17:13.131Z,168.17
2023-04-25T07:18:13.174Z,153.65
2023-04-25T07:19:13.131Z,169.86
2023-04-25T07:20:13.152Z,160.93
2023-04-25T07:21:13.112Z,126.45
2023-04-25T07:22:13.149Z,138.44
2023-04-25T07:23:13.068Z,141.19
2023-04-25T07:24:13.074Z,149.46
2023-04-25T07:25:13.158Z,157.93
2023-04-25T07:26:13.041Z,128.57
2023-04-25T07:27:13.101Z,144.03
2023-04-25T07:28:13.048Z,139.18
2023-04-25T07:29:13.061Z,138.65
2023-04-25T07:30:13.034Z,133.95
2023-04-25T07:31:13.023Z,157.19
2023-04-25T07:32:13.257Z,133.67
2023-04-25T07:33:13.065Z,133.97
2023-04-25T07:34:13.024Z,128.95
2023-04-25T07:35:12.989Z,142.06
2023-04-25T07:36:12.965Z,132.15
2023-04-25T07:37:12.990Z,115.24
2023-04-25T07:38:12.996Z,115.89
2023-04-25T07:39:12.961Z,129.65
2023-04-25T07:40:12.999Z,124.34
2023-04-25T07:41:12.948Z,137.13
2023-04-25T07:42:12.970Z,47.31
2023-04-25T07:43:12.952Z,25.00
2023-04-25T07:44:12.959Z,37.43
2023-04-25T07:45:12.899Z,36.02
2023-04-25T07:46:13.013Z,34.64
2023-04-25T07:47:12.932Z,31.01
2023-04-25T07:48:12.956Z,55.90
2023-04-25T07:49:12.870Z,65.83
2023-04-25T07:50:12.941Z,68.54
2023-04-25T07:51:12.907Z,85.33
2023-04-25T07:52:12.943Z,67.57
2023-04-25T07:53:12.993Z,96.54
2023-04-25T07:54:13.030Z,82.38
2023-04-25T07:55:13.129Z,64.80
2023-04-25T07:56:13.147Z,78.32
2023-04-25T07:57:13.145Z,68.10
2023-04-25T07:58:13.197Z,43.26
2023-04-25T07:59:13.214Z,35.11
2023-04-25T08:00:13.311Z,21.31
2023-04-25T08:01:13.350Z,33.62
2023-04-25T08:02:13.417Z,57.63
2023-04-25T08:03:13.621Z,128.34
2023-04-25T08:04:13.580Z,151.74
2023-04-25T08:05:13.816Z,175.48
2023-04-25T08:06:13.822Z,166.01
2023-04-25T08:07:13.618Z,182.63
2023-04-25T08:08:13.656Z,213.87
2023-04-25T08:09:13.776Z,221.65
2023-04-25T08:10:13.735Z,199.75
2023-04-25T08:11:13.852Z,197.98
2023-04-25T08:12:13.800Z,209.38
2023-04-25T08:13:13.935Z,223.86
2023-04-25T08:14:13.896Z,238.30
2023-04-25T08:15:13.894Z,242.45
2023-04-25T08:16:13.968Z,227.21
2023-04-25T08:17:13.976Z,206.65
2023-04-25T08:18:16.233Z,208.58
2023-04-25T08:19:13.990Z,210.13
2023-04-25T08:20:14.000Z,213.45
2023-04-25T08:21:13.984Z,217.15
2023-04-25T08:22:14.033Z,215.53
2023-04-25T08:23:13.984Z,235.92
2023-04-25T08:24:13.983Z,216.70
2023-04-25T08:25:13.980Z,216.57
2023-04-25T08:26:13.962Z,233.53
2023-04-25T08:27:14.036Z,232.93
2023-04-25T08:28:13.945Z,226.36
2023-04-25T08:29:13.921Z,175.26
2023-04-25T08:30:13.945Z,192.10
2023-04-25T08:31:13.952Z,168.15
2023-04-25T08:32:14.224Z,135.42
2023-04-25T08:33:13.941Z,98.43
2023-04-25T08:34:13.889Z,131.12
2023-04-25T08:35:13.932Z,163.64
2023-04-25T08:36:17.325Z,189.03
2023-04-25T08:37:14.839Z,189.83
2023-04-25T08:38:13.870Z,193.96
2023-04-25T08:39:14.978Z,200.47
2023-04-25T08:40:13.976Z,216.21
2023-04-25T08:41:13.911Z,245.99
2023-04-25T08:42:13.858Z,249.40
2023-04-25T08:43:13.825Z,250.07
2023-04-25T08:44:13.862Z,248.56
2023-04-25T08:45:13.857Z,250.00
2023-04-25T08:46:13.842Z,250.00
2023-04-25T08:47:13.948Z,249.02
2023-04-25T08:48:13.856Z,249.11
2023-04-25T08:49:13.797Z,249.71
2023-04-25T08:50:13.779Z,250.00
2023-04-25T08:51:13.796Z,249.07
2023-04-25T08:52:13.825Z,249.39
2023-04-25T08:53:13.754Z,250.00
2023-04-25T08:54:28.067Z,247.49
2023-04-25T08:55:14.772Z,247.78
2023-04-25T08:56:13.782Z,248.89
2023-04-25T08:57:13.727Z,250.86
2023-04-25T08:58:13.955Z,189.14
2023-04-25T08:59:13.718Z,140.06
2023-04-25T09:00:13.690Z,103.29
2023-04-25T09:01:13.732Z,84.79
2023-04-25T09:02:13.908Z,73.01
2023-04-25T09:03:13.933Z,73.78
2023-04-25T09:04:13.853Z,74.78
2023-04-25T09:05:13.869Z,74.90
2023-04-25T09:06:13.661Z,54.68
2023-04-25T09:07:13.633Z,59.35
2023-04-25T09:08:13.635Z,50.26
2023-04-25T09:09:13.632Z,64.13
2023-04-25T09:10:13.649Z,44.38
2023-04-25T09:11:13.624Z,25.71
2023-04-25T09:12:13.620Z,42.63
2023-04-25T09:13:13.614Z,82.98
2023-04-25T09:14:13.639Z,86.63
2023-04-25T09:16:14.707Z,45.24
2023-04-25T09:17:13.725Z,67.66
2023-04-25T09:18:13.737Z,92.13
2023-04-25T09:19:13.680Z,81.43
2023-04-25T09:20:13.683Z,67.19
2023-04-25T09:21:14.968Z,80.67
2023-04-25T09:22:13.681Z,92.12
2023-04-25T09:23:13.616Z,92.79
2023-04-25T09:24:13.621Z,115.15
2023-04-25T09:25:13.655Z,128.14
2023-04-25T09:26:13.683Z,135.92
2023-04-25T09:27:13.730Z,137.04
2023-04-25T09:28:13.775Z,149.73
2023-04-25T09:29:13.797Z,168.40
2023-04-25T09:30:13.829Z,167.08
2023-04-25T09:31:13.869Z,166.57
2023-04-25T09:32:14.163Z,185.60
2023-04-25T09:33:13.972Z,184.54
2023-04-25T09:34:13.905Z,191.58
2023-04-25T09:35:13.913Z,194.85
2023-04-25T09:36:13.938Z,199.16
2023-04-25T09:37:13.944Z,187.85
2023-04-25T09:38:13.954Z,200.32
2023-04-25T09:39:13.912Z,204.86
2023-04-25T09:40:13.941Z,207.22
2023-04-25T09:41:13.936Z,213.74
2023-04-25T09:42:13.936Z,216.67
2023-04-25T09:43:13.949Z,220.57
2023-04-25T09:44:14.040Z,221.77
2023-04-25T09:45:14.008Z,223.64
2023-04-25T09:46:14.018Z,224.46
2023-04-25T09:47:14.065Z,228.13
2023-04-25T09:48:15.026Z,234.28
2023-04-25T09:49:14.039Z,231.78
2023-04-25T09:50:14.095Z,237.45
2023-04-25T09:51:14.128Z,238.70
2023-04-25T09:52:14.150Z,241.91
2023-04-25T09:53:14.139Z,243.30
2023-04-25T09:54:14.187Z,246.46
2023-04-25T09:55:14.292Z,247.60
2023-04-25T09:56:14.257Z,249.35
2023-04-25T09:57:14.290Z,249.03
2023-04-25T09:58:14.287Z,250.00
2023-04-25T09:59:14.363Z,247.48
2023-04-25T10:00:14.401Z,247.48
2023-04-25T10:01:14.397Z,246.97
2023-04-25T10:02:14.448Z,247.74
2023-04-25T10:03:14.554Z,250.00
2023-04-25T10:04:14.555Z,247.75
2023-04-25T10:05:14.586Z,249.00
2023-04-25T10:06:14.569Z,250.00
2023-04-25T10:07:14.652Z,248.77
2023-04-25T10:08:14.665Z,249.46
2023-04-25T10:09:14.709Z,250.00
2023-04-25T10:10:14.847Z,247.82
2023-04-25T10:11:14.772Z,247.83
2023-04-25T10:12:14.848Z,248.08
2023-04-25T10:13:14.839Z,247.09
2023-04-25T10:14:14.906Z,250.00
2023-04-25T10:15:14.894Z,206.27
2023-04-25T10:16:14.976Z,155.57
2023-04-25T10:17:14.939Z,142.36
2023-04-25T10:18:15.123Z,131.36
2023-04-25T10:19:14.978Z,111.62
2023-04-25T10:20:14.976Z,104.42
2023-04-25T10:21:14.976Z,106.11
2023-04-25T10:22:15.019Z,118.39
2023-04-25T10:23:15.053Z,137.41
2023-04-25T10:24:15.032Z,129.36
2023-04-25T10:25:15.058Z,139.03
2023-04-25T10:26:15.141Z,132.11
2023-04-25T10:27:15.036Z,139.58
2023-04-25T10:28:15.070Z,135.21
2023-04-25T10:29:15.519Z,135.04
2023-04-25T10:30:15.156Z,143.13
2023-04-25T10:31:15.180Z,138.63
2023-04-25T10:32:15.212Z,129.52
2023-04-25T10:33:15.118Z,113.84
2023-04-25T10:34:15.113Z,113.30
2023-04-25T10:35:15.145Z,114.75
2023-04-25T10:36:15.142Z,111.77
2023-04-25T10:37:15.150Z,113.21
2023-04-25T10:38:15.233Z,110.55
2023-04-25T10:39:15.190Z,111.73
2023-04-25T10:40:15.204Z,113.98
2023-04-25T10:41:15.287Z,117.00
2023-04-25T10:42:15.210Z,124.64
2023-04-25T10:43:15.222Z,127.26
2023-04-25T10:44:15.256Z,122.48
2023-04-25T10:45:15.285Z,118.31
2023-04-25T10:46:15.347Z,104.72
2023-04-25T10:47:15.297Z,96.18
2023-04-25T10:48:15.303Z,106.79
2023-04-25T10:49:16.242Z,104.44
2023-04-25T10:50:15.357Z,103.05
2023-04-25T10:51:15.414Z,102.94
2023-04-25T10:52:15.371Z,106.82
2023-04-25T10:53:15.373Z,97.70
2023-04-25T10:54:15.426Z,95.55
2023-04-25T10:55:15.437Z,100.91
2023-04-25T10:56:15.543Z,118.37
2023-04-25T10:57:15.440Z,121.21
2023-04-25T10:58:15.465Z,113.82
2023-04-25T10:59:15.458Z,131.48
2023-04-25T11:00:15.619Z,139.63
2023-04-25T11:01:15.563Z,151.70
2023-04-25T11:02:15.736Z,154.04
2023-04-25T11:03:15.594Z,155.58
2023-04-25T11:04:15.747Z,155.57
2023-04-25T11:05:15.489Z,154.98
2023-04-25T11:06:15.488Z,161.55
2023-04-25T11:07:15.534Z,181.84
2023-04-25T11:08:15.510Z,186.08
2023-04-25T11:09:15.551Z,184.52
2023-04-25T11:10:15.487Z,186.32
2023-04-25T11:11:15.523Z,181.27
2023-04-25T11:12:15.559Z,155.70
2023-04-25T11:13:15.544Z,166.99
2023-04-25T11:14:15.516Z,163.56
2023-04-25T11:15:15.580Z,169.60
2023-04-25T11:16:23.750Z,175.09
2023-04-25T11:17:16.686Z,165.39
2023-04-25T11:18:15.578Z,131.17
2023-04-25T11:19:15.518Z,128.35
2023-04-25T11:20:15.523Z,141.21
2023-04-25T11:21:15.538Z,139.58
2023-04-25T11:22:15.527Z,129.22
2023-04-25T11:23:15.594Z,133.55
2023-04-25T11:24:15.497Z,127.46
2023-04-25T11:25:15.524Z,139.87
2023-04-25T11:26:15.504Z,105.11
2023-04-25T11:27:15.493Z,92.71
2023-04-25T11:28:15.516Z,59.68
2023-04-25T11:29:15.442Z,26.18
2023-04-25T11:30:15.453Z,65.61
2023-04-25T11:31:15.444Z,92.75
2023-04-25T11:32:15.611Z,106.18
2023-04-25T11:33:15.529Z,94.22
2023-04-25T11:34:15.452Z,96.03
2023-04-25T11:35:15.420Z,104.00
2023-04-25T11:36:15.412Z,111.86
2023-04-25T11:37:15.452Z,113.30
2023-04-25T11:38:15.396Z,104.55
2023-04-25T11:39:15.422Z,90.49
2023-04-25T11:40:15.458Z,96.83
2023-04-25T11:41:15.491Z,102.47
2023-04-25T11:42:15.496Z,98.14
2023-04-25T11:43:15.540Z,90.30
2023-04-25T11:44:15.603Z,100.60
2023-04-25T11:45:15.589Z,88.85
2023-04-25T11:46:15.635Z,104.26
2023-04-25T11:47:15.667Z,87.39
2023-04-25T11:48:15.731Z,82.90
2023-04-25T11:49:15.693Z,64.85
2023-04-25T11:50:15.704Z,103.80
2023-04-25T11:51:15.757Z,87.02
2023-04-25T11:52:15.780Z,78.22
2023-04-25T11:53:15.809Z,90.64
2023-04-25T11:54:15.858Z,99.99
2023-04-25T11:55:15.906Z,87.22
2023-04-25T11:56:15.905Z,96.60
2023-04-25T11:57:15.931Z,105.69
2023-04-25T11:58:15.960Z,117.73
2023-04-25T11:59:15.970Z,108.53
2023-04-25T12:00:18.705Z,115.68
2023-04-25T12:01:15.985Z,109.86
2023-04-25T12:02:16.071Z,116.16
2023-04-25T12:03:16.202Z,135.34
2023-04-25T12:04:16.160Z,133.23
2023-04-25T12:05:31.050Z,89.76
2023-04-25T12:06:17.139Z,89.76
2023-04-25T12:07:16.118Z,88.66
2023-04-25T12:08:16.187Z,89.20
2023-04-25T12:09:16.113Z,96.32
2023-04-25T12:10:16.163Z,121.07
2023-04-25T12:11:16.192Z,115.98
2023-04-25T12:12:16.239Z,120.98
2023-04-25T12:13:16.544Z,92.89
2023-04-25T12:14:16.246Z,89.02
2023-04-25T12:15:16.303Z,104.37
2023-04-25T12:16:16.362Z,106.10
2023-04-25T12:17:16.275Z,115.78
2023-04-25T12:18:16.347Z,95.11
2023-04-25T12:19:16.331Z,95.36
2023-04-25T12:20:16.377Z,92.97
2023-04-25T12:21:16.331Z,97.56
2023-04-25T12:22:16.407Z,93.36
2023-04-25T12:23:16.389Z,77.14
2023-04-25T12:24:16.351Z,112.68
2023-04-25T12:25:16.362Z,99.31
2023-04-25T12:26:16.388Z,75.95
2023-04-25T12:27:16.482Z,85.54
2023-04-25T12:28:16.438Z,84.12
2023-04-25T12:29:16.480Z,79.00
2023-04-25T12:30:16.456Z,79.40
2023-04-25T12:31:16.533Z,82.86
2023-04-25T12:32:16.665Z,88.94
2023-04-25T12:33:16.606Z,81.08
2023-04-25T12:34:16.520Z,72.92
2023-04-25T12:35:16.507Z,51.48
2023-04-25T12:36:16.563Z,61.52
2023-04-25T12:37:16.601Z,67.22
2023-04-25T12:38:16.638Z,66.19
2023-04-25T12:39:16.642Z,58.71
2023-04-25T12:40:16.653Z,73.00
2023-04-25T12:41:16.623Z,84.26
2023-04-25T12:42:16.656Z,90.76
2023-04-25T12:43:16.717Z,100.50
2023-04-25T12:44:16.680Z,100.49
2023-04-25T12:45:16.713Z,116.70
2023-04-25T12:46:16.695Z,89.23
2023-04-25T12:47:16.683Z,91.38
2023-04-25T12:48:16.724Z,105.27
2023-04-25T12:49:19.070Z,108.12
2023-04-25T12:50:16.837Z,99.52
2023-04-25T12:51:16.837Z,101.79
2023-04-25T12:52:16.835Z,124.34
2023-04-25T12:53:16.903Z,86.74
2023-04-25T12:54:16.866Z,1.20
2023-04-25T12:55:16.894Z,0.00
2023-04-25T12:56:16.899Z,43.73
2023-04-25T12:57:16.929Z,44.44
2023-04-25T12:58:16.952Z,48.35
2023-04-25T12:59:16.976Z,58.95
2023-04-25T13:00:17.023Z,16.46
2023-04-25T13:01:17.069Z,0.62
2023-04-25T13:02:17.160Z,28.79
2023-04-25T13:03:17.232Z,19.08
2023-04-25T13:04:17.516Z,31.52
2023-04-25T13:05:17.243Z,30.80
2023-04-25T13:06:17.248Z,61.33
2023-04-25T13:07:17.207Z,88.22
2023-04-25T13:08:17.255Z,108.18
2023-04-25T13:09:17.302Z,99.72
2023-04-25T13:10:17.318Z,90.00
2023-04-25T13:11:17.395Z,94.32
2023-04-25T13:12:17.470Z,87.77
2023-04-25T13:13:17.486Z,96.50
2023-04-25T13:14:17.522Z,107.12
2023-04-25T13:15:17.550Z,119.15
2023-04-25T13:16:17.589Z,104.71
2023-04-25T13:17:17.712Z,115.57
2023-04-25T13:18:17.750Z,125.73
2023-04-25T13:19:17.700Z,127.81
2023-04-25T13:20:17.652Z,123.62
2023-04-25T13:21:17.682Z,131.30
2023-04-25T13:22:17.750Z,127.47
2023-04-25T13:23:17.725Z,141.21
2023-04-25T13:24:17.771Z,137.43
2023-04-25T13:25:17.779Z,145.60
2023-04-25T13:26:17.760Z,105.58
2023-04-25T13:27:17.783Z,57.72
2023-04-25T13:28:17.770Z,46.97
2023-04-25T13:29:17.865Z,74.30
2023-04-25T13:30:17.847Z,104.91
2023-04-25T13:31:17.967Z,101.53
2023-04-25T13:32:17.937Z,82.86
2023-04-25T13:33:17.961Z,88.25
2023-04-25T13:34:17.953Z,92.45
2023-04-25T13:35:17.972Z,96.82
2023-04-25T13:36:18.031Z,104.61
2023-04-25T13:37:18.055Z,106.85
2023-04-25T13:38:18.050Z,104.34
2023-04-25T13:39:18.046Z,107.78
2023-04-25T13:40:18.109Z,125.79
2023-04-25T13:41:18.062Z,128.55
2023-04-25T13:42:18.090Z,121.03
2023-04-25T13:43:18.084Z,123.42
2023-04-25T13:44:18.099Z,134.47
2023-04-25T13:45:18.131Z,143.33
2023-04-25T13:47:18.143Z,147.07
2023-04-25T13:48:18.126Z,140.01
2023-04-25T13:49:18.095Z,150.68
2023-04-25T13:50:18.109Z,147.73
2023-04-25T13:51:18.050Z,152.13
2023-04-25T13:52:18.082Z,148.29
2023-04-25T13:53:18.107Z,144.91
2023-04-25T13:54:18.037Z,107.05
2023-04-25T13:55:18.039Z,110.49
2023-04-25T13:56:18.077Z,133.56
2023-04-25T13:57:18.044Z,158.36
2023-04-25T13:58:18.056Z,146.01
2023-04-25T13:59:18.066Z,155.61
2023-04-25T14:00:18.048Z,160.75
2023-04-25T14:01:17.983Z,149.81
2023-04-25T14:02:18.015Z,141.50
2023-04-25T14:03:18.071Z,119.97
2023-04-25T14:04:18.036Z,143.17
2023-04-25T14:05:18.052Z,156.89
2023-04-25T14:06:18.000Z,136.06
2023-04-25T14:07:17.982Z,150.75
2023-04-25T14:08:17.979Z,171.63
2023-04-25T14:09:17.956Z,183.65
2023-04-25T14:10:17.994Z,190.21
2023-04-25T14:11:17.975Z,192.74
2023-04-25T14:12:17.971Z,195.06
2023-04-25T14:13:17.935Z,194.71
2023-04-25T14:14:17.958Z,201.65
2023-04-25T14:15:17.935Z,207.89
2023-04-25T14:16:18.213Z,209.76
2023-04-25T14:17:17.948Z,210.27
2023-04-25T14:18:17.906Z,210.83
2023-04-25T14:19:20.209Z,214.56
2023-04-25T14:20:17.912Z,214.66
2023-04-25T14:21:17.892Z,214.67
2023-04-25T14:22:17.903Z,215.03
2023-04-25T14:23:17.848Z,219.31
2023-04-25T14:24:17.844Z,220.59
2023-04-25T14:25:17.913Z,223.73
2023-04-25T14:26:17.856Z,222.72
2023-04-25T14:27:17.836Z,220.40
2023-04-25T14:28:17.850Z,222.40
2023-04-25T14:29:17.832Z,225.36
2023-04-25T14:30:17.862Z,230.80
2023-04-25T14:31:17.862Z,230.36
2023-04-25T14:32:17.851Z,231.18
2023-04-25T14:33:17.854Z,234.50
2023-04-25T14:34:17.823Z,239.56
2023-04-25T14:35:17.819Z,242.87
2023-04-25T14:36:17.789Z,244.35
2023-04-25T14:37:17.801Z,242.84
2023-04-25T14:38:17.802Z,245.42
2023-04-25T14:39:17.801Z,246.77
2023-04-25T14:40:17.781Z,247.20
2023-04-25T14:41:17.795Z,247.07
2023-04-25T14:42:17.751Z,249.45
2023-04-25T14:43:17.780Z,249.67
2023-04-25T14:44:17.730Z,249.89
2023-04-25T14:45:17.757Z,249.14
2023-04-25T14:46:17.800Z,247.09
2023-04-25T14:47:17.702Z,248.74
2023-04-25T14:48:17.797Z,250.00
2023-04-25T14:49:17.743Z,249.66
2023-04-25T14:50:17.690Z,249.57
2023-04-25T14:51:17.701Z,249.41
2023-04-25T14:52:17.710Z,249.18
2023-04-25T14:53:17.696Z,249.09
2023-04-25T14:54:17.679Z,246.49
2023-04-25T14:55:17.716Z,220.84
2023-04-25T14:56:17.668Z,178.48
2023-04-25T14:57:17.699Z,160.72
2023-04-25T14:58:17.722Z,151.99
2023-04-25T14:59:17.766Z,196.99
2023-04-25T15:00:17.902Z,235.51
2023-04-25T15:01:17.961Z,239.47
2023-04-25T15:02:17.961Z,239.53
2023-04-25T15:03:18.221Z,240.40
2023-04-25T15:04:18.102Z,242.36
2023-04-25T15:05:18.082Z,237.17
2023-04-25T15:06:18.156Z,242.75
2023-04-25T15:07:18.758Z,246.40
2023-04-25T15:08:18.235Z,246.84
2023-04-25T15:09:19.355Z,249.87
2023-04-25T15:10:18.338Z,248.30
2023-04-25T15:11:18.381Z,249.35
2023-04-25T15:12:18.419Z,250.00
2023-04-25T15:13:18.473Z,248.95
2023-04-25T15:14:18.534Z,250.10
2023-04-25T15:15:26.121Z,249.82
2023-04-25T15:16:19.556Z,250.10
2023-04-25T15:17:18.521Z,251.67
2023-04-25T15:18:18.631Z,255.29
2023-04-25T15:19:18.533Z,260.60
2023-04-25T15:20:18.480Z,268.76
2023-04-25T15:21:18.471Z,256.87
2023-04-25T15:22:18.503Z,249.79
2023-04-25T15:23:18.511Z,249.48
2023-04-25T15:24:18.458Z,247.31
2023-04-25T15:25:18.429Z,247.90
2023-04-25T15:26:18.441Z,247.04
2023-04-25T15:27:18.466Z,248.45
2023-04-25T15:28:18.493Z,247.81
2023-04-25T15:29:18.497Z,246.69
2023-04-25T15:30:18.567Z,246.20
2023-04-25T15:31:18.611Z,246.40
2023-04-25T15:32:18.685Z,246.68
2023-04-25T15:33:18.709Z,246.80
2023-04-25T15:34:18.739Z,245.41
2023-04-25T15:35:18.799Z,246.05
2023-04-25T15:36:18.860Z,245.61
2023-04-25T15:37:18.895Z,244.85
2023-04-25T15:38:18.932Z,244.13
2023-04-25T15:39:19.027Z,246.53
2023-04-25T15:40:19.048Z,247.65
2023-04-25T15:41:19.093Z,246.49
2023-04-25T15:42:19.173Z,244.17
2023-04-25T15:43:19.205Z,244.36
2023-04-25T15:44:19.250Z,243.69
2023-04-25T15:45:19.304Z,241.65
2023-04-25T15:46:19.449Z,241.23
2023-04-25T15:47:19.421Z,241.30
2023-04-25T15:48:19.458Z,240.21
2023-04-25T15:49:19.520Z,239.81
2023-04-25T15:50:19.601Z,239.43
2023-04-25T15:51:19.607Z,240.52
2023-04-25T15:52:19.753Z,238.44
2023-04-25T15:53:19.713Z,238.86
2023-04-25T15:54:19.772Z,238.33
2023-04-25T15:55:19.803Z,238.56
2023-04-25T15:56:19.836Z,237.52
2023-04-25T15:57:19.884Z,236.11
2023-04-25T15:58:19.962Z,236.15
2023-04-25T15:59:20.014Z,236.08
2023-04-25T16:00:20.033Z,236.75
2023-04-25T16:01:20.126Z,235.15
2023-04-25T16:02:20.193Z,235.68
2023-04-25T16:03:20.393Z,234.66
2023-04-25T16:04:20.450Z,235.98
2023-04-25T16:05:20.317Z,233.95
2023-04-25T16:06:20.337Z,233.24
2023-04-25T16:07:20.390Z,234.10
2023-04-25T16:08:20.418Z,233.98
2023-04-25T16:09:20.516Z,233.06
2023-04-25T16:10:20.610Z,232.55
2023-04-25T16:11:20.604Z,232.62
2023-04-25T16:12:20.719Z,232.16
2023-04-25T16:13:20.719Z,232.97
2023-04-25T16:14:20.734Z,232.14
2023-04-25T16:15:20.859Z,232.41
2023-04-25T16:16:20.915Z,231.99
2023-04-25T16:17:20.917Z,231.39
2023-04-25T16:18:21.056Z,231.41
2023-04-25T16:19:21.105Z,230.47
2023-04-25T16:20:21.069Z,230.09
2023-04-25T16:21:21.136Z,230.70
2023-04-25T16:22:21.211Z,230.31
2023-04-25T16:23:21.264Z,230.01
2023-04-25T16:24:21.304Z,230.44
2023-04-25T16:25:21.346Z,228.89
2023-04-25T16:26:21.410Z,228.61
2023-04-25T16:27:21.474Z,228.51
2023-04-25T16:28:21.504Z,228.42
2023-04-25T16:29:21.583Z,228.48
2023-04-25T16:30:21.636Z,228.10
2023-04-25T16:31:21.725Z,226.45
2023-04-25T16:32:21.827Z,226.17
2023-04-25T16:33:21.805Z,227.22
2023-04-25T16:34:21.793Z,226.94
2023-04-25T16:35:21.877Z,226.18
2023-04-25T16:36:21.905Z,226.89
2023-04-25T16:37:21.964Z,226.93
2023-04-25T16:38:21.999Z,225.55
2023-04-25T16:39:22.051Z,225.74
2023-04-25T16:40:22.106Z,225.53
2023-04-25T16:41:22.129Z,225.11
2023-04-25T16:42:22.174Z,225.74
2023-04-25T16:43:22.192Z,225.73
2023-04-25T16:44:22.260Z,223.88
2023-04-25T16:45:22.299Z,224.79
2023-04-25T16:46:22.349Z,223.35
2023-04-25T16:47:22.412Z,225.44
2023-04-25T16:48:22.441Z,224.14
2023-04-25T16:49:22.462Z,223.30
2023-04-25T16:50:22.531Z,222.60
2023-04-25T16:51:22.592Z,223.96
2023-04-25T16:52:22.670Z,221.83
2023-04-25T16:53:22.667Z,224.72
2023-04-25T16:54:22.728Z,223.06
2023-04-25T16:55:22.756Z,222.83
2023-04-25T16:56:22.796Z,222.53
2023-04-25T16:57:22.859Z,221.53
2023-04-25T16:58:22.878Z,221.65
2023-04-25T16:59:22.912Z,221.64
2023-04-25T17:00:22.998Z,221.98
